createdAt,value
2019-02-28T00:00:52.621Z,26.37
2019-02-28T00:01:52.596Z,26.29
2019-02-28T00:02:53.840Z,26.35
2019-02-28T00:03:52.547Z,26.35
2019-02-28T00:04:52.518Z,26.35
2019-02-28T00:05:52.500Z,26.35
2019-02-28T00:06:52.489Z,26.29
2019-02-28T00:07:54.482Z,26.31
2019-02-28T00:08:55.726Z,26.35
2019-02-28T00:09:52.416Z,26.32
2019-02-28T00:10:52.413Z,26.32
2019-02-28T00:11:52.385Z,26.27
2019-02-28T00:12:53.402Z,26.22
2019-02-28T00:13:57.879Z,26.29
2019-02-28T00:14:52.323Z,26.28
2019-02-28T00:15:52.296Z,26.29
2019-02-28T00:16:52.285Z,26.27
2019-02-28T00:17:52.256Z,26.28
2019-02-28T00:18:55.208Z,26.27
2019-02-28T00:19:52.214Z,26.31
2019-02-28T00:20:52.461Z,26.24
2019-02-28T00:21:52.188Z,26.21
2019-02-28T00:22:54.036Z,26.22
2019-02-28T00:23:56.306Z,26.24
2019-02-28T00:24:51.878Z,26.17
2019-02-28T00:25:52.099Z,26.28
2019-02-28T00:26:52.687Z,26.25
2019-02-28T00:27:55.120Z,26.25
2019-02-28T00:28:52.017Z,26.21
2019-02-28T00:29:52.018Z,26.25
2019-02-28T00:30:51.992Z,26.25
2019-02-28T00:31:55.361Z,26.29
2019-02-28T00:32:51.934Z,26.21
2019-02-28T00:33:51.968Z,26.2
2019-02-28T00:34:51.927Z,26.25
2019-02-28T00:35:51.884Z,26.27
2019-02-28T00:36:55.340Z,26.25
2019-02-28T00:37:51.841Z,26.29
2019-02-28T00:38:51.830Z,26.25
2019-02-28T00:39:51.802Z,26.27
2019-02-28T00:40:51.771Z,26.29
2019-02-28T00:41:51.748Z,26.25
2019-02-28T00:42:55.217Z,26.15
2019-02-28T00:43:51.720Z,26.18
2019-02-28T00:44:51.703Z,26.2
2019-02-28T00:45:51.421Z,26.24
2019-02-28T00:46:51.660Z,26.25
2019-02-28T00:47:53.032Z,26.22
2019-02-28T00:48:52.927Z,26.15
2019-02-28T00:49:51.580Z,26.21
2019-02-28T00:50:51.567Z,26.2
2019-02-28T00:51:51.552Z,26.2
2019-02-28T00:52:51.537Z,26.2
2019-02-28T00:53:51.512Z,26.22
2019-02-28T00:54:51.484Z,26.21
2019-02-28T00:55:51.771Z,26.24
2019-02-28T00:56:56.397Z,26.21
2019-02-28T00:57:51.434Z,26.18
2019-02-28T00:58:51.404Z,26.12
2019-02-28T00:59:51.380Z,26.12
2019-02-28T01:00:51.352Z,26.17
2019-02-28T01:01:51.756Z,26.15
2019-02-28T01:02:58.007Z,26.09
2019-02-28T01:03:51.302Z,26.11
2019-02-28T01:04:51.267Z,26.11
2019-02-28T01:05:51.022Z,26.2
2019-02-28T01:06:51.255Z,26.06
2019-02-28T01:07:53.041Z,26.11
2019-02-28T01:08:52.960Z,26.06
2019-02-28T01:09:51.175Z,26.04
2019-02-28T01:10:50.923Z,26.02
2019-02-28T01:11:51.136Z,26.08
2019-02-28T01:12:55.758Z,26.06
2019-02-28T01:13:51.086Z,26.09
2019-02-28T01:14:51.072Z,26.06
2019-02-28T01:15:51.063Z,26.09
2019-02-28T01:16:55.038Z,26.06
2019-02-28T01:17:50.993Z,26.06
2019-02-28T01:18:50.991Z,26.02
2019-02-28T01:19:50.963Z,26.06
2019-02-28T01:20:54.816Z,26.06
2019-02-28T01:21:50.924Z,26.08
2019-02-28T01:22:50.895Z,26.06
2019-02-28T01:23:50.878Z,26.06
2019-02-28T01:24:50.872Z,26.04
2019-02-28T01:25:50.886Z,26.05
2019-02-28T01:26:52.004Z,26.04
2019-02-28T01:27:52.390Z,26.02
2019-02-28T01:28:50.790Z,26.05
2019-02-28T01:29:50.765Z,26.04
2019-02-28T01:30:50.748Z,26.06
2019-02-28T01:31:50.709Z,25.98
2019-02-28T01:32:54.797Z,25.99
2019-02-28T01:33:50.682Z,25.99
2019-02-28T01:34:50.646Z,25.99
2019-02-28T01:35:50.641Z,25.97
2019-02-28T01:36:54.238Z,26.02
2019-02-28T01:37:52.334Z,25.97
2019-02-28T01:38:50.337Z,26.01
2019-02-28T01:39:50.549Z,25.91
2019-02-28T01:40:50.519Z,25.99
2019-02-28T01:41:50.633Z,26.01
2019-02-28T01:42:53.648Z,25.94
2019-02-28T01:43:50.465Z,25.91
2019-02-28T01:44:50.439Z,25.94
2019-02-28T01:45:50.413Z,25.93
2019-02-28T01:46:53.309Z,25.91
2019-02-28T01:47:51.688Z,25.97
2019-02-28T01:48:50.367Z,25.93
2019-02-28T01:49:50.328Z,25.98
2019-02-28T01:50:50.322Z,25.98
2019-02-28T01:51:50.301Z,25.94
2019-02-28T01:52:50.951Z,25.99
2019-02-28T01:53:55.857Z,25.97
2019-02-28T01:54:50.229Z,25.97
2019-02-28T01:55:50.209Z,25.97
2019-02-28T01:56:50.198Z,25.82
2019-02-28T01:57:50.180Z,25.93
2019-02-28T01:58:52.927Z,25.82
2019-02-28T01:59:52.857Z,25.83
2019-02-28T02:00:50.122Z,25.97
2019-02-28T02:01:50.096Z,25.9
2019-02-28T02:02:50.071Z,25.94
2019-02-28T02:03:50.042Z,25.87
2019-02-28T02:04:50.635Z,25.93
2019-02-28T02:05:53.750Z,25.79
2019-02-28T02:06:49.979Z,25.94
2019-02-28T02:07:49.964Z,25.77
2019-02-28T02:08:49.933Z,25.82
2019-02-28T02:09:51.566Z,25.93
2019-02-28T02:10:54.739Z,25.93
2019-02-28T02:11:49.887Z,25.87
2019-02-28T02:12:49.863Z,25.82
2019-02-28T02:13:49.844Z,25.9
2019-02-28T02:14:50.541Z,25.8
2019-02-28T02:15:53.444Z,25.8
2019-02-28T02:16:49.769Z,25.84
2019-02-28T02:17:49.743Z,25.8
2019-02-28T02:18:49.734Z,25.84
2019-02-28T02:19:52.137Z,25.83
2019-02-28T02:20:49.699Z,25.83
2019-02-28T02:21:49.658Z,25.77
2019-02-28T02:22:50.325Z,25.83
2019-02-28T02:23:55.073Z,25.83
2019-02-28T02:24:49.615Z,25.82
2019-02-28T02:25:49.577Z,25.77
2019-02-28T02:26:49.991Z,25.87
2019-02-28T02:27:52.766Z,25.82
2019-02-28T02:28:49.529Z,25.84
2019-02-28T02:29:49.503Z,25.82
2019-02-28T02:30:55.479Z,25.83
2019-02-28T02:31:49.467Z,25.77
2019-02-28T02:32:49.459Z,25.8
2019-02-28T02:33:55.977Z,25.86
2019-02-28T02:34:49.409Z,25.84
2019-02-28T02:35:49.150Z,25.84
2019-02-28T02:36:55.651Z,25.82
2019-02-28T02:37:49.342Z,25.84
2019-02-28T02:38:49.315Z,25.87
2019-02-28T02:39:52.756Z,25.82
2019-02-28T02:40:49.288Z,25.79
2019-02-28T02:41:49.256Z,25.79
2019-02-28T02:42:54.419Z,25.82
2019-02-28T02:43:49.217Z,25.8
2019-02-28T02:44:49.196Z,25.8
2019-02-28T02:45:49.173Z,25.82
2019-02-28T02:46:55.248Z,25.79
2019-02-28T02:47:49.142Z,25.72
2019-02-28T02:48:49.114Z,25.84
2019-02-28T02:49:55.952Z,25.82
2019-02-28T02:50:49.075Z,25.84
2019-02-28T02:51:53.904Z,25.82
2019-02-28T02:52:49.035Z,25.74
2019-02-28T02:53:49.016Z,25.68
2019-02-28T02:54:52.036Z,25.79
2019-02-28T02:55:48.958Z,25.8
2019-02-28T02:56:48.981Z,25.74
2019-02-28T02:57:55.643Z,25.79
2019-02-28T02:58:48.919Z,25.75
2019-02-28T02:59:48.876Z,25.74
2019-02-28T03:00:54.668Z,25.79
2019-02-28T03:01:48.827Z,25.82
2019-02-28T03:02:48.817Z,25.82
2019-02-28T03:03:49.078Z,25.77
2019-02-28T03:04:48.771Z,25.82
2019-02-28T03:05:48.736Z,25.79
2019-02-28T03:06:50.958Z,25.83
2019-02-28T03:07:48.732Z,25.8
2019-02-28T03:08:48.696Z,25.71
2019-02-28T03:09:49.565Z,25.77
2019-02-28T03:10:51.697Z,25.75
2019-02-28T03:11:48.617Z,25.72
2019-02-28T03:12:48.628Z,25.77
2019-02-28T03:13:49.040Z,25.69
2019-02-28T03:14:51.278Z,25.72
2019-02-28T03:15:48.536Z,25.74
2019-02-28T03:16:48.297Z,25.74
2019-02-28T03:17:53.069Z,25.74
2019-02-28T03:18:48.626Z,25.74
2019-02-28T03:19:48.450Z,25.69
2019-02-28T03:20:48.441Z,25.74
2019-02-28T03:21:56.407Z,25.69
2019-02-28T03:22:48.396Z,25.68
2019-02-28T03:23:48.404Z,25.72
2019-02-28T03:24:55.639Z,25.68
2019-02-28T03:25:48.348Z,25.68
2019-02-28T03:26:48.309Z,25.69
2019-02-28T03:27:54.567Z,25.68
2019-02-28T03:28:48.257Z,25.67
2019-02-28T03:29:49.479Z,25.69
2019-02-28T03:30:48.236Z,25.71
2019-02-28T03:32:02.142Z,25.71
2019-02-28T03:32:48.204Z,25.67
2019-02-28T03:33:48.238Z,25.72
2019-02-28T03:35:01.836Z,25.69
2019-02-28T03:35:49.138Z,25.61
2019-02-28T03:36:58.109Z,25.69
2019-02-28T03:37:48.080Z,25.65
2019-02-28T03:38:53.430Z,25.59
2019-02-28T03:39:48.040Z,25.65
2019-02-28T03:40:48.035Z,25.69
2019-02-28T03:41:52.832Z,25.67
2019-02-28T03:42:47.989Z,25.64
2019-02-28T03:43:48.989Z,25.68
2019-02-28T03:44:47.947Z,25.62
2019-02-28T03:45:47.912Z,25.64
2019-02-28T03:46:52.453Z,25.65
2019-02-28T03:47:47.900Z,25.61
2019-02-28T03:48:48.508Z,25.67
2019-02-28T03:49:53.519Z,25.64
2019-02-28T03:50:47.853Z,25.65
2019-02-28T03:51:47.789Z,25.61
2019-02-28T03:52:49.573Z,25.64
2019-02-28T03:53:47.750Z,25.62
2019-02-28T03:54:47.711Z,25.61
2019-02-28T03:55:47.699Z,25.62
2019-02-28T03:56:53.821Z,25.68
2019-02-28T03:57:47.671Z,25.61
2019-02-28T03:58:47.986Z,25.59
2019-02-28T03:59:55.251Z,25.69
2019-02-28T04:00:47.587Z,25.61
2019-02-28T04:01:51.128Z,25.65
2019-02-28T04:02:47.560Z,25.64
2019-02-28T04:03:47.537Z,25.57
2019-02-28T04:04:53.589Z,25.65
2019-02-28T04:05:47.512Z,25.57
2019-02-28T04:06:47.469Z,25.54
2019-02-28T04:07:55.618Z,25.61
2019-02-28T04:08:47.454Z,25.54
2019-02-28T04:09:49.834Z,25.57
2019-02-28T04:10:47.405Z,25.61
2019-02-28T04:11:47.363Z,25.52
2019-02-28T04:12:51.581Z,25.61
2019-02-28T04:13:47.311Z,25.57
2019-02-28T04:14:47.294Z,25.56
2019-02-28T04:16:11.501Z,25.61
2019-02-28T04:16:52.392Z,25.62
2019-02-28T04:17:47.224Z,25.53
2019-02-28T04:18:51.078Z,25.53
2019-02-28T04:19:47.184Z,25.5
2019-02-28T04:20:47.194Z,25.53
2019-02-28T04:21:51.226Z,25.49
2019-02-28T04:22:47.155Z,25.56
2019-02-28T04:23:47.106Z,25.5
2019-02-28T04:24:51.221Z,25.5
2019-02-28T04:25:47.064Z,25.53
2019-02-28T04:26:47.051Z,25.5
2019-02-28T04:27:47.059Z,25.52
2019-02-28T04:28:53.219Z,25.52
2019-02-28T04:29:46.983Z,25.46
2019-02-28T04:30:48.647Z,25.44
2019-02-28T04:31:46.957Z,25.49
2019-02-28T04:32:46.902Z,25.49
2019-02-28T04:33:46.898Z,25.52
2019-02-28T04:34:51.267Z,25.52
2019-02-28T04:35:46.853Z,25.39
2019-02-28T04:36:46.811Z,25.49
2019-02-28T04:37:51.734Z,25.53
2019-02-28T04:38:46.783Z,25.49
2019-02-28T04:39:46.760Z,25.46
2019-02-28T04:40:46.746Z,25.46
2019-02-28T04:41:46.718Z,25.46
2019-02-28T04:42:46.698Z,25.43
2019-02-28T04:43:49.692Z,25.49
2019-02-28T04:44:49.172Z,25.43
2019-02-28T04:45:46.631Z,25.44
2019-02-28T04:46:46.614Z,25.43
2019-02-28T04:47:46.657Z,25.46
2019-02-28T04:48:50.550Z,25.43
2019-02-28T04:49:46.535Z,25.49
2019-02-28T04:50:46.519Z,25.42
2019-02-28T04:51:46.498Z,25.43
2019-02-28T04:52:51.603Z,25.44
2019-02-28T04:53:46.466Z,25.44
2019-02-28T04:54:46.435Z,25.44
2019-02-28T04:55:46.458Z,25.49
2019-02-28T04:56:49.908Z,25.49
2019-02-28T04:57:46.391Z,25.44
2019-02-28T04:58:46.398Z,25.44
2019-02-28T04:59:46.408Z,25.44
2019-02-28T05:00:46.304Z,25.49
2019-02-28T05:01:50.174Z,25.47
2019-02-28T05:02:46.402Z,25.47
2019-02-28T05:03:46.251Z,25.47
2019-02-28T05:04:47.073Z,25.52
2019-02-28T05:05:52.177Z,25.49
2019-02-28T05:06:46.899Z,25.46
2019-02-28T05:07:46.979Z,25.47
2019-02-28T05:08:46.178Z,25.46
2019-02-28T05:09:50.038Z,25.47
2019-02-28T05:10:46.108Z,25.49
2019-02-28T05:11:46.078Z,25.47
2019-02-28T05:12:46.050Z,25.47
2019-02-28T05:13:50.887Z,25.47
2019-02-28T05:14:46.031Z,25.5
2019-02-28T05:15:46.004Z,25.47
2019-02-28T05:16:51.972Z,25.39
2019-02-28T05:17:45.953Z,25.47
2019-02-28T05:18:45.933Z,25.44
2019-02-28T05:19:45.909Z,25.47
2019-02-28T05:20:49.962Z,25.46
2019-02-28T05:21:45.864Z,25.42
2019-02-28T05:22:45.654Z,25.53
2019-02-28T05:23:45.821Z,25.44
2019-02-28T05:24:47.415Z,25.46
2019-02-28T05:25:45.787Z,25.42
2019-02-28T05:26:45.760Z,25.47
2019-02-28T05:27:45.767Z,25.47
2019-02-28T05:28:46.167Z,25.46
2019-02-28T05:29:49.284Z,25.44
2019-02-28T05:30:46.326Z,25.47
2019-02-28T05:31:45.650Z,25.5
2019-02-28T05:32:45.624Z,25.44
2019-02-28T05:33:47.449Z,25.49
2019-02-28T05:34:47.355Z,25.39
2019-02-28T05:35:45.572Z,25.42
2019-02-28T05:36:45.549Z,25.42
2019-02-28T05:37:51.701Z,25.38
2019-02-28T05:38:45.505Z,25.38
2019-02-28T05:39:46.151Z,25.43
2019-02-28T05:40:46.275Z,25.42
2019-02-28T05:41:48.912Z,25.38
2019-02-28T05:42:45.421Z,25.38
2019-02-28T05:43:45.526Z,25.42
2019-02-28T05:44:45.704Z,25.38
2019-02-28T05:45:48.509Z,25.38
2019-02-28T05:46:45.338Z,25.39
2019-02-28T05:47:51.664Z,25.37
2019-02-28T05:48:45.308Z,25.49
2019-02-28T05:49:46.593Z,25.38
2019-02-28T05:50:46.795Z,25.39
2019-02-28T05:51:45.232Z,25.37
2019-02-28T05:52:45.227Z,25.38
2019-02-28T05:53:47.132Z,25.39
2019-02-28T05:54:47.180Z,25.38
2019-02-28T05:55:45.144Z,25.38
2019-02-28T05:56:45.140Z,25.37
2019-02-28T05:57:48.441Z,25.42
2019-02-28T05:58:45.112Z,25.39
2019-02-28T05:59:45.098Z,25.44
2019-02-28T06:00:45.116Z,25.42
2019-02-28T06:01:49.161Z,25.42
2019-02-28T06:02:45.066Z,25.38
2019-02-28T06:03:44.980Z,25.37
2019-02-28T06:04:44.957Z,25.38
2019-02-28T06:05:48.437Z,25.42
2019-02-28T06:06:44.909Z,25.38
2019-02-28T06:07:44.884Z,25.39
2019-02-28T06:08:44.899Z,25.42
2019-02-28T06:09:48.656Z,25.37
2019-02-28T06:10:44.584Z,25.37
2019-02-28T06:11:44.799Z,25.39
2019-02-28T06:12:47.889Z,25.42
2019-02-28T06:13:44.827Z,25.39
2019-02-28T06:14:44.784Z,25.39
2019-02-28T06:15:44.714Z,25.38
2019-02-28T06:16:48.922Z,25.39
2019-02-28T06:17:44.691Z,25.42
2019-02-28T06:18:44.815Z,25.37
2019-02-28T06:19:46.526Z,25.42
2019-02-28T06:20:44.708Z,25.34
2019-02-28T06:21:44.626Z,25.39
2019-02-28T06:22:44.570Z,25.42
2019-02-28T06:23:45.696Z,25.42
2019-02-28T06:24:47.295Z,25.39
2019-02-28T06:25:44.518Z,25.34
2019-02-28T06:26:44.482Z,25.39
2019-02-28T06:27:51.583Z,25.38
2019-02-28T06:28:44.428Z,25.39
2019-02-28T06:29:44.421Z,25.43
2019-02-28T06:30:46.397Z,25.42
2019-02-28T06:31:45.383Z,25.25
2019-02-28T06:32:44.377Z,25.3
2019-02-28T06:33:44.717Z,25.42
2019-02-28T06:34:47.195Z,25.35
2019-02-28T06:35:44.673Z,25.39
2019-02-28T06:36:44.284Z,25.27
2019-02-28T06:37:44.002Z,25.31
2019-02-28T06:38:44.239Z,25.22
2019-02-28T06:39:44.203Z,25.37
2019-02-28T06:40:44.202Z,25.38
2019-02-28T06:41:45.479Z,25.34
2019-02-28T06:42:46.629Z,25.28
2019-02-28T06:43:44.338Z,25.28
2019-02-28T06:44:44.103Z,25.22
2019-02-28T06:45:44.093Z,25.27
2019-02-28T06:46:45.437Z,25.32
2019-02-28T06:47:47.887Z,25.27
2019-02-28T06:48:44.031Z,25.32
2019-02-28T06:49:46.691Z,25.28
2019-02-28T06:50:47.475Z,25.28
2019-02-28T06:51:43.948Z,25.27
2019-02-28T06:52:43.920Z,25.37
2019-02-28T06:53:43.924Z,25.32
2019-02-28T06:54:45.777Z,25.32
2019-02-28T06:55:48.673Z,25.34
2019-02-28T06:56:43.834Z,25.37
2019-02-28T06:57:43.832Z,25.35
2019-02-28T06:58:43.867Z,25.27
2019-02-28T06:59:44.499Z,25.32
2019-02-28T07:00:50.498Z,25.22
2019-02-28T07:01:44.079Z,25.43
2019-02-28T07:02:43.808Z,25.37
2019-02-28T07:03:53.215Z,25.3
2019-02-28T07:04:45.430Z,25.39
2019-02-28T07:05:43.653Z,25.32
2019-02-28T07:06:43.649Z,25.37
2019-02-28T07:07:45.586Z,25.38
2019-02-28T07:08:43.607Z,25.38
2019-02-28T07:09:43.557Z,25.34
2019-02-28T07:10:44.883Z,25.39
2019-02-28T07:11:43.525Z,25.37
2019-02-28T07:12:43.510Z,25.42
2019-02-28T07:13:44.854Z,25.37
2019-02-28T07:14:44.440Z,25.42
2019-02-28T07:15:43.446Z,25.37
2019-02-28T07:16:43.477Z,25.35
2019-02-28T07:17:46.257Z,25.42
2019-02-28T07:18:43.362Z,25.38
2019-02-28T07:19:43.350Z,25.35
2019-02-28T07:20:43.345Z,25.37
2019-02-28T07:21:47.784Z,25.35
2019-02-28T07:22:44.869Z,25.37
2019-02-28T07:23:43.268Z,25.42
2019-02-28T07:24:43.261Z,25.37
2019-02-28T07:25:44.206Z,25.37
2019-02-28T07:26:43.198Z,25.39
2019-02-28T07:27:43.416Z,25.42
2019-02-28T07:28:43.189Z,25.38
2019-02-28T07:29:45.262Z,25.42
2019-02-28T07:30:43.127Z,25.42
2019-02-28T07:31:43.135Z,25.42
2019-02-28T07:32:43.074Z,25.39
2019-02-28T07:33:47.600Z,25.38
2019-02-28T07:34:42.879Z,25.35
2019-02-28T07:35:43.012Z,25.39
2019-02-28T07:36:46.836Z,25.42
2019-02-28T07:37:42.745Z,25.39
2019-02-28T07:38:42.989Z,25.35
2019-02-28T07:39:45.742Z,25.38
2019-02-28T07:40:42.900Z,25.35
2019-02-28T07:41:43.870Z,25.35
2019-02-28T07:42:43.439Z,25.38
2019-02-28T07:43:48.395Z,25.38
2019-02-28T07:44:42.831Z,25.38
2019-02-28T07:45:42.815Z,25.38
2019-02-28T07:46:46.665Z,25.44
2019-02-28T07:47:42.784Z,25.39
2019-02-28T07:48:42.722Z,25.42
2019-02-28T07:49:42.774Z,25.42
2019-02-28T07:50:48.705Z,25.39
2019-02-28T07:51:42.674Z,25.38
2019-02-28T07:52:42.652Z,25.46
2019-02-28T07:53:45.952Z,25.44
2019-02-28T07:54:42.603Z,25.44
2019-02-28T07:55:42.394Z,25.49
2019-02-28T07:56:47.600Z,25.5
2019-02-28T07:57:42.674Z,25.47
2019-02-28T07:58:42.624Z,25.44
2019-02-28T07:59:47.216Z,25.49
2019-02-28T08:00:42.487Z,25.46
2019-02-28T08:01:42.475Z,25.46
2019-02-28T08:02:44.589Z,25.42
2019-02-28T08:03:45.891Z,25.47
2019-02-28T08:04:43.642Z,25.43
2019-02-28T08:05:42.698Z,25.47
2019-02-28T08:06:44.695Z,25.44
2019-02-28T08:07:42.342Z,25.47
2019-02-28T08:08:42.444Z,25.44
2019-02-28T08:09:45.558Z,25.47
2019-02-28T08:10:42.256Z,25.46
2019-02-28T08:11:42.238Z,25.49
2019-02-28T08:12:42.227Z,25.42
2019-02-28T08:13:43.091Z,25.38
2019-02-28T08:14:43.535Z,25.44
2019-02-28T08:15:41.958Z,25.43
2019-02-28T08:16:42.208Z,25.5
2019-02-28T08:17:48.259Z,25.49
2019-02-28T08:18:42.094Z,25.44
2019-02-28T08:19:42.071Z,25.42
2019-02-28T08:20:42.106Z,25.44
2019-02-28T08:21:51.068Z,25.47
2019-02-28T08:22:42.009Z,25.43
2019-02-28T08:23:42.529Z,25.47
2019-02-28T08:24:41.965Z,25.38
2019-02-28T08:25:45.233Z,25.44
2019-02-28T08:26:43.647Z,25.42
2019-02-28T08:27:41.975Z,25.44
2019-02-28T08:28:41.895Z,25.44
2019-02-28T08:29:47.199Z,25.44
2019-02-28T08:30:41.902Z,25.47
2019-02-28T08:31:41.859Z,25.39
2019-02-28T08:32:49.531Z,25.44
2019-02-28T08:33:41.958Z,25.49
2019-02-28T08:34:41.756Z,25.43
2019-02-28T08:35:42.388Z,25.47
2019-02-28T08:36:43.773Z,25.49
2019-02-28T08:37:41.700Z,25.44
2019-02-28T08:38:43.671Z,25.52
2019-02-28T08:39:43.728Z,25.52
2019-02-28T08:40:41.680Z,25.54
2019-02-28T08:41:41.620Z,25.52
2019-02-28T08:42:44.503Z,25.54
2019-02-28T08:43:44.532Z,25.56
2019-02-28T08:44:41.576Z,25.52
2019-02-28T08:45:41.590Z,25.57
2019-02-28T08:46:43.468Z,25.52
2019-02-28T08:47:41.569Z,25.61
2019-02-28T08:48:41.485Z,25.62
2019-02-28T08:49:47.979Z,25.61
2019-02-28T08:50:41.532Z,25.57
2019-02-28T08:51:43.170Z,25.53
2019-02-28T08:52:45.896Z,25.57
2019-02-28T08:53:41.389Z,25.62
2019-02-28T08:54:41.332Z,25.54
2019-02-28T08:55:46.894Z,25.61
2019-02-28T08:56:41.274Z,25.49
2019-02-28T08:57:41.247Z,25.62
2019-02-28T08:58:45.004Z,25.56
2019-02-28T08:59:41.223Z,25.61
2019-02-28T09:00:42.503Z,25.61
2019-02-28T09:01:46.658Z,25.61
2019-02-28T09:02:41.007Z,25.59
2019-02-28T09:03:43.061Z,25.61
2019-02-28T09:04:51.000Z,25.57
2019-02-28T09:05:41.262Z,25.65
2019-02-28T09:06:45.590Z,25.64
2019-02-28T09:07:41.072Z,25.62
2019-02-28T09:08:41.055Z,25.67
2019-02-28T09:09:41.111Z,25.67
2019-02-28T09:10:43.600Z,25.64
2019-02-28T09:11:40.975Z,25.64
2019-02-28T09:12:41.027Z,25.59
2019-02-28T09:13:45.076Z,25.62
2019-02-28T09:14:40.889Z,25.57
2019-02-28T09:15:40.901Z,25.64
2019-02-28T09:16:44.197Z,25.67
2019-02-28T09:17:42.643Z,25.68
2019-02-28T09:18:40.926Z,25.72
2019-02-28T09:19:41.733Z,25.69
2019-02-28T09:20:46.765Z,25.74
2019-02-28T09:21:41.280Z,25.71
2019-02-28T09:22:40.754Z,25.69
2019-02-28T09:23:43.059Z,25.68
2019-02-28T09:24:43.657Z,25.75
2019-02-28T09:25:40.712Z,25.77
2019-02-28T09:26:40.648Z,25.8
2019-02-28T09:27:44.294Z,25.82
2019-02-28T09:28:40.604Z,25.82
2019-02-28T09:29:40.592Z,25.77
2019-02-28T09:30:40.564Z,25.82
2019-02-28T09:31:43.562Z,25.72
2019-02-28T09:32:40.503Z,25.77
2019-02-28T09:33:40.595Z,25.75
2019-02-28T09:34:41.281Z,25.8
2019-02-28T09:35:44.988Z,25.69
2019-02-28T09:36:40.414Z,25.79
2019-02-28T09:37:41.492Z,25.69
2019-02-28T09:38:42.224Z,25.72
2019-02-28T09:39:40.469Z,25.8
2019-02-28T09:40:41.225Z,25.71
2019-02-28T09:41:44.654Z,25.82
2019-02-28T09:42:40.324Z,25.83
2019-02-28T09:43:40.283Z,25.86
2019-02-28T09:44:40.278Z,25.83
2019-02-28T09:45:42.790Z,25.8
2019-02-28T09:46:40.293Z,25.91
2019-02-28T09:47:40.365Z,25.84
2019-02-28T09:48:42.628Z,25.9
2019-02-28T09:49:40.319Z,25.84
2019-02-28T09:50:40.137Z,25.83
2019-02-28T09:51:40.234Z,25.84
2019-02-28T09:52:46.092Z,25.93
2019-02-28T09:53:40.305Z,25.83
2019-02-28T09:54:39.798Z,25.93
2019-02-28T09:55:42.248Z,25.94
2019-02-28T09:56:41.068Z,25.8
2019-02-28T09:57:39.987Z,25.79
2019-02-28T09:58:40.146Z,25.8
2019-02-28T09:59:43.214Z,25.83
2019-02-28T10:00:39.966Z,25.8
2019-02-28T10:01:39.924Z,25.87
2019-02-28T10:02:45.832Z,25.86
2019-02-28T10:03:40.036Z,26.01
2019-02-28T10:04:39.834Z,25.89
2019-02-28T10:05:42.337Z,25.9
2019-02-28T10:06:39.846Z,25.97
2019-02-28T10:07:39.810Z,25.91
2019-02-28T10:08:42.543Z,25.9
2019-02-28T10:09:46.983Z,25.97
2019-02-28T10:10:39.783Z,25.93
2019-02-28T10:11:40.517Z,25.91
2019-02-28T10:12:44.775Z,25.99
2019-02-28T10:13:39.802Z,25.99
2019-02-28T10:14:39.629Z,26.02
2019-02-28T10:15:43.851Z,25.94
2019-02-28T10:16:39.614Z,26.04
2019-02-28T10:17:39.563Z,25.99
2019-02-28T10:18:41.999Z,26.04
2019-02-28T10:19:54.457Z,26.02
2019-02-28T10:20:39.512Z,26.05
2019-02-28T10:21:42.082Z,26.05
2019-02-28T10:22:39.489Z,26.05
2019-02-28T10:23:39.464Z,26.04
2019-02-28T10:24:39.429Z,26.04
2019-02-28T10:25:45.905Z,26.05
2019-02-28T10:26:39.510Z,26.04
2019-02-28T10:27:39.421Z,26.06
2019-02-28T10:28:39.339Z,26.06
2019-02-28T10:29:44.139Z,26.05
2019-02-28T10:30:39.281Z,26.02
2019-02-28T10:31:43.290Z,26.11
2019-02-28T10:32:40.314Z,26.09
2019-02-28T10:33:39.287Z,26.11
2019-02-28T10:34:40.309Z,26.05
2019-02-28T10:35:41.645Z,26.02
2019-02-28T10:36:39.492Z,26.11
2019-02-28T10:37:40.608Z,26.08
2019-02-28T10:38:39.617Z,26.05
2019-02-28T10:39:40.212Z,26.05
2019-02-28T10:40:39.069Z,26.05
2019-02-28T10:41:39.065Z,26.17
2019-02-28T10:42:44.654Z,26.05
2019-02-28T10:43:39.020Z,26.18
2019-02-28T10:44:38.992Z,26.21
2019-02-28T10:45:43.655Z,26.09
2019-02-28T10:46:40.865Z,26.17
2019-02-28T10:47:38.931Z,26.12
2019-02-28T10:48:53.409Z,26.12
2019-02-28T10:49:38.883Z,26.22
2019-02-28T10:50:38.871Z,26.12
2019-02-28T10:51:38.948Z,26.11
2019-02-28T10:52:38.884Z,26.2
2019-02-28T10:53:41.803Z,26.18
2019-02-28T10:54:38.981Z,26.17
2019-02-28T10:55:38.758Z,26.22
2019-02-28T10:56:39.131Z,26.17
2019-02-28T10:57:42.581Z,26.25
2019-02-28T10:58:38.695Z,26.15
2019-02-28T10:59:38.673Z,26.15
2019-02-28T11:00:38.663Z,26.24
2019-02-28T11:01:44.190Z,26.27
2019-02-28T11:02:38.608Z,26.22
2019-02-28T11:03:38.614Z,26.18
2019-02-28T11:04:42.670Z,26.25
2019-02-28T11:05:38.618Z,26.25
2019-02-28T11:06:38.533Z,26.22
2019-02-28T11:07:42.076Z,26.29
2019-02-28T11:08:38.515Z,26.25
2019-02-28T11:09:38.304Z,26.25
2019-02-28T11:10:41.007Z,26.22
2019-02-28T11:11:38.481Z,26.27
2019-02-28T11:12:38.546Z,26.22
2019-02-28T11:13:38.581Z,26.28
2019-02-28T11:14:43.155Z,26.29
2019-02-28T11:15:38.581Z,26.22
2019-02-28T11:16:38.561Z,26.22
2019-02-28T11:17:39.116Z,26.21
2019-02-28T11:18:41.842Z,26.04
2019-02-28T11:19:38.694Z,25.8
2019-02-28T11:20:39.239Z,25.79
2019-02-28T11:21:39.005Z,25.68
2019-02-28T11:22:43.262Z,25.53
2019-02-28T11:23:38.436Z,25.47
2019-02-28T11:24:38.198Z,25.34
2019-02-28T11:25:40.439Z,25.3
2019-02-28T11:26:38.144Z,25.2
2019-02-28T11:27:38.246Z,25.09
2019-02-28T11:28:38.093Z,24.98
2019-02-28T11:29:39.860Z,24.83
2019-02-28T11:30:43.957Z,24.87
2019-02-28T11:31:38.295Z,24.82
2019-02-28T11:32:38.021Z,24.76
2019-02-28T11:33:41.625Z,24.6
2019-02-28T11:34:37.933Z,24.63
2019-02-28T11:35:37.961Z,24.57
2019-02-28T11:36:39.477Z,24.49
2019-02-28T11:37:37.935Z,24.47
2019-02-28T11:38:37.985Z,24.41
2019-02-28T11:39:38.639Z,24.34
2019-02-28T11:40:40.358Z,24.31
2019-02-28T11:41:38.092Z,24.27
2019-02-28T11:42:38.111Z,24.32
2019-02-28T11:43:42.362Z,24.34
2019-02-28T11:44:37.778Z,24.35
2019-02-28T11:45:37.712Z,24.27
2019-02-28T11:46:40.582Z,24.31
2019-02-28T11:47:37.654Z,24.26
2019-02-28T11:48:37.694Z,24.37
2019-02-28T11:49:37.392Z,24.37
2019-02-28T11:50:40.939Z,24.42
2019-02-28T11:51:37.608Z,24.44
2019-02-28T11:52:37.559Z,24.47
2019-02-28T11:53:41.761Z,24.45
2019-02-28T11:54:37.508Z,24.42
2019-02-28T11:55:37.506Z,24.45
2019-02-28T11:56:37.467Z,24.44
2019-02-28T11:57:43.262Z,24.53
2019-02-28T11:58:37.417Z,24.49
2019-02-28T11:59:37.389Z,24.52
2019-02-28T12:00:41.370Z,24.6
2019-02-28T12:01:37.807Z,24.63
2019-02-28T12:02:37.345Z,24.61
2019-02-28T12:03:40.361Z,24.61
2019-02-28T12:04:42.635Z,24.64
2019-02-28T12:05:37.897Z,24.63
2019-02-28T12:06:37.236Z,24.61
2019-02-28T12:07:40.324Z,24.61
2019-02-28T12:08:37.208Z,24.61
2019-02-28T12:09:37.181Z,24.63
2019-02-28T12:10:37.290Z,24.67
2019-02-28T12:11:40.847Z,24.67
2019-02-28T12:12:37.105Z,24.69
2019-02-28T12:13:37.348Z,24.73
2019-02-28T12:14:37.224Z,24.71
2019-02-28T12:15:41.358Z,24.61
2019-02-28T12:16:37.716Z,24.75
2019-02-28T12:17:37.163Z,24.77
2019-02-28T12:18:42.157Z,24.69
2019-02-28T12:19:36.963Z,24.75
2019-02-28T12:20:36.924Z,24.68
2019-02-28T12:21:40.338Z,24.71
2019-02-28T12:22:37.034Z,24.68
2019-02-28T12:23:36.880Z,24.77
2019-02-28T12:24:37.930Z,24.82
2019-02-28T12:25:39.480Z,24.8
2019-02-28T12:26:36.812Z,24.8
2019-02-28T12:27:36.787Z,24.82
2019-02-28T12:28:38.242Z,24.79
2019-02-28T12:29:36.745Z,24.8
2019-02-28T12:30:36.720Z,24.64
2019-02-28T12:31:40.350Z,24.76
2019-02-28T12:32:36.805Z,24.76
2019-02-28T12:33:36.704Z,24.67
2019-02-28T12:34:36.623Z,24.8
2019-02-28T12:35:43.209Z,24.75
2019-02-28T12:36:36.631Z,24.79
2019-02-28T12:37:36.854Z,24.85
2019-02-28T12:38:36.559Z,24.77
2019-02-28T12:39:39.338Z,24.77
2019-02-28T12:40:36.584Z,24.68
2019-02-28T12:41:36.495Z,24.76
2019-02-28T12:42:39.410Z,24.75
2019-02-28T12:43:36.482Z,24.76
2019-02-28T12:44:36.403Z,24.68
2019-02-28T12:45:36.390Z,24.71
2019-02-28T12:46:37.378Z,24.79
2019-02-28T12:47:38.573Z,24.82
2019-02-28T12:48:36.344Z,24.8
2019-02-28T12:49:36.310Z,24.76
2019-02-28T12:50:36.310Z,24.77
2019-02-28T12:51:39.520Z,24.85
2019-02-28T12:52:36.254Z,24.76
2019-02-28T12:53:37.410Z,24.83
2019-02-28T12:54:38.883Z,24.77